sensor_id;sensor_type;location;lat;lon;timestamp;temperature;humidity
17954;DHT22;9102;53.548;9.926;2022-09-09T00:00:13;14.50;99.90
17954;DHT22;9102;53.548;9.926;2022-09-09T00:02:44;14.50;99.90
17954;DHT22;9102;53.548;9.926;2022-09-09T00:05:19;14.50;99.90
17954;DHT22;9102;53.548;9.926;2022-09-09T00:07:52;14.50;99.90
17954;DHT22;9102;53.548;9.926;2022-09-09T00:10:25;14.50;99.90
17954;DHT22;9102;53.548;9.926;2022-09-09T00:13:04;14.60;99.90
17954;DHT22;9102;53.548;9.926;2022-09-09T00:15:38;14.60;99.90
17954;DHT22;9102;53.548;9.926;2022-09-09T00:18:14;14.60;99.90
17954;DHT22;9102;53.548;9.926;2022-09-09T00:20:46;14.60;99.90
17954;DHT22;9102;53.548;9.926;2022-09-09T00:23:21;14.60;99.90
17954;DHT22;9102;53.548;9.926;2022-09-09T00:25:57;14.70;99.90
17954;DHT22;9102;53.548;9.926;2022-09-09T00:28:28;14.80;99.90
17954;DHT22;9102;53.548;9.926;2022-09-09T00:31:01;14.80;99.90
17954;DHT22;9102;53.548;9.926;2022-09-09T00:33:34;14.80;99.90
17954;DHT22;9102;53.548;9.926;2022-09-09T00:36:01;14.80;99.90
17954;DHT22;9102;53.548;9.926;2022-09-09T00:38:36;14.80;99.90
17954;DHT22;9102;53.548;9.926;2022-09-09T00:41:10;14.90;99.90
17954;DHT22;9102;53.548;9.926;2022-09-09T00:43:41;14.90;99.90
17954;DHT22;9102;53.548;9.926;2022-09-09T00:49:08;15.00;99.90
17954;DHT22;9102;53.548;9.926;2022-09-09T00:51:46;15.00;99.90
17954;DHT22;9102;53.548;9.926;2022-09-09T00:54:27;15.00;99.90
17954;DHT22;9102;53.548;9.926;2022-09-09T00:57:03;14.90;99.90
17954;DHT22;9102;53.548;9.926;2022-09-09T00:59:44;14.90;99.90
17954;DHT22;9102;53.548;9.926;2022-09-09T01:02:19;14.90;99.90
17954;DHT22;9102;53.548;9.926;2022-09-09T01:04:48;15.00;99.90
17954;DHT22;9102;53.548;9.926;2022-09-09T01:07:17;14.90;99.90
17954;DHT22;9102;53.548;9.926;2022-09-09T01:09:56;14.90;99.90
17954;DHT22;9102;53.548;9.926;2022-09-09T01:12:26;14.80;99.90
17954;DHT22;9102;53.548;9.926;2022-09-09T01:15:03;14.80;99.90
17954;DHT22;9102;53.548;9.926;2022-09-09T01:17:44;14.70;99.90
17954;DHT22;9102;53.548;9.926;2022-09-09T01:20:15;14.70;99.90
17954;DHT22;9102;53.548;9.926;2022-09-09T01:22:52;14.70;99.90
17954;DHT22;9102;53.548;9.926;2022-09-09T01:25:29;14.70;99.90
17954;DHT22;9102;53.548;9.926;2022-09-09T01:28:01;14.60;99.90
17954;DHT22;9102;53.548;9.926;2022-09-09T01:30:30;14.70;99.90
17954;DHT22;9102;53.548;9.926;2022-09-09T01:32:58;14.70;99.90
17954;DHT22;9102;53.548;9.926;2022-09-09T01:35:39;14.70;99.90
17954;DHT22;9102;53.548;9.926;2022-09-09T01:38:07;14.70;99.90
17954;DHT22;9102;53.548;9.926;2022-09-09T01:40:34;14.60;99.90
17954;DHT22;9102;53.548;9.926;2022-09-09T01:43:02;14.60;99.90
17954;DHT22;9102;53.548;9.926;2022-09-09T01:45:30;14.60;99.90
17954;DHT22;9102;53.548;9.926;2022-09-09T01:47:57;14.60;99.90
17954;DHT22;9102;53.548;9.926;2022-09-09T01:50:24;14.60;99.90
17954;DHT22;9102;53.548;9.926;2022-09-09T01:52:55;14.60;99.90
17954;DHT22;9102;53.548;9.926;2022-09-09T01:55:29;14.60;99.90
17954;DHT22;9102;53.548;9.926;2022-09-09T01:58:11;14.50;99.90
17954;DHT22;9102;53.548;9.926;2022-09-09T02:00:45;14.50;99.90
17954;DHT22;9102;53.548;9.926;2022-09-09T02:03:20;14.50;99.90
17954;DHT22;9102;53.548;9.926;2022-09-09T02:09:13;14.50;99.90
17954;DHT22;9102;53.548;9.926;2022-09-09T02:11:43;14.40;99.90
17954;DHT22;9102;53.548;9.926;2022-09-09T02:14:18;14.40;99.90
17954;DHT22;9102;53.548;9.926;2022-09-09T02:16:49;14.40;99.90
17954;DHT22;9102;53.548;9.926;2022-09-09T02:19:20;14.40;99.90
17954;DHT22;9102;53.548;9.926;2022-09-09T02:21:52;14.30;99.90
17954;DHT22;9102;53.548;9.926;2022-09-09T02:24:21;14.40;99.90
17954;DHT22;9102;53.548;9.926;2022-09-09T02:26:51;14.40;99.90
17954;DHT22;9102;53.548;9.926;2022-09-09T02:29:23;14.40;99.90
17954;DHT22;9102;53.548;9.926;2022-09-09T02:31:53;14.30;99.90
17954;DHT22;9102;53.548;9.926;2022-09-09T02:34:23;14.30;99.90
17954;DHT22;9102;53.548;9.926;2022-09-09T02:36:53;14.40;99.90
17954;DHT22;9102;53.548;9.926;2022-09-09T02:39:21;14.40;99.90
17954;DHT22;9102;53.548;9.926;2022-09-09T02:41:48;14.40;99.90
17954;DHT22;9102;53.548;9.926;2022-09-09T02:44:17;14.40;99.90
17954;DHT22;9102;53.548;9.926;2022-09-09T02:47:10;14.30;99.90
17954;DHT22;9102;53.548;9.926;2022-09-09T02:49:47;14.30;99.90
17954;DHT22;9102;53.548;9.926;2022-09-09T02:52:18;14.20;99.90
17954;DHT22;9102;53.548;9.926;2022-09-09T02:54:50;14.20;99.90
17954;DHT22;9102;53.548;9.926;2022-09-09T02:57:23;14.20;99.90
17954;DHT22;9102;53.548;9.926;2022-09-09T02:59:51;14.20;99.90
17954;DHT22;9102;53.548;9.926;2022-09-09T03:02:19;14.20;99.90
17954;DHT22;9102;53.548;9.926;2022-09-09T03:04:46;14.20;99.90
17954;DHT22;9102;53.548;9.926;2022-09-09T03:07:16;14.20;99.90
17954;DHT22;9102;53.548;9.926;2022-09-09T03:09:43;14.20;99.90
17954;DHT22;9102;53.548;9.926;2022-09-09T03:12:10;14.20;99.90
17954;DHT22;9102;53.548;9.926;2022-09-09T03:14:37;14.20;99.90
17954;DHT22;9102;53.548;9.926;2022-09-09T03:17:04;14.20;99.90
17954;DHT22;9102;53.548;9.926;2022-09-09T03:19:33;14.10;99.90
17954;DHT22;9102;53.548;9.926;2022-09-09T03:22:00;14.20;99.90
17954;DHT22;9102;53.548;9.926;2022-09-09T03:24:27;14.10;99.90
17954;DHT22;9102;53.548;9.926;2022-09-09T03:26:54;14.10;99.90
17954;DHT22;9102;53.548;9.926;2022-09-09T03:29:21;14.20;99.90
17954;DHT22;9102;53.548;9.926;2022-09-09T03:31:48;14.10;99.90
17954;DHT22;9102;53.548;9.926;2022-09-09T03:34:16;14.00;99.90
17954;DHT22;9102;53.548;9.926;2022-09-09T03:36:44;14.00;99.90
17954;DHT22;9102;53.548;9.926;2022-09-09T03:39:10;14.00;99.90
17954;DHT22;9102;53.548;9.926;2022-09-09T03:41:37;14.00;99.90
17954;DHT22;9102;53.548;9.926;2022-09-09T03:44:04;14.00;99.90
17954;DHT22;9102;53.548;9.926;2022-09-09T03:46:31;14.00;99.90
17954;DHT22;9102;53.548;9.926;2022-09-09T03:48:57;14.00;99.90
17954;DHT22;9102;53.548;9.926;2022-09-09T03:51:24;14.00;99.90
17954;DHT22;9102;53.548;9.926;2022-09-09T03:53:52;13.90;99.90
17954;DHT22;9102;53.548;9.926;2022-09-09T03:56:20;13.90;99.90
17954;DHT22;9102;53.548;9.926;2022-09-09T03:58:47;13.90;99.90
17954;DHT22;9102;53.548;9.926;2022-09-09T04:01:14;13.90;99.90
17954;DHT22;9102;53.548;9.926;2022-09-09T04:07:04;14.00;99.90
17954;DHT22;9102;53.548;9.926;2022-09-09T04:09:33;14.00;99.90
17954;DHT22;9102;53.548;9.926;2022-09-09T04:12:01;13.90;99.90
17954;DHT22;9102;53.548;9.926;2022-09-09T04:14:28;13.90;99.90
17954;DHT22;9102;53.548;9.926;2022-09-09T04:16:55;13.90;99.90
17954;DHT22;9102;53.548;9.926;2022-09-09T04:19:23;13.90;99.90
17954;DHT22;9102;53.548;9.926;2022-09-09T04:21:50;13.80;99.90
17954;DHT22;9102;53.548;9.926;2022-09-09T04:24:17;13.80;99.90
17954;DHT22;9102;53.548;9.926;2022-09-09T04:26:45;13.80;99.90
17954;DHT22;9102;53.548;9.926;2022-09-09T04:29:12;13.90;99.90
17954;DHT22;9102;53.548;9.926;2022-09-09T04:31:39;13.80;99.90
17954;DHT22;9102;53.548;9.926;2022-09-09T04:34:07;13.80;99.90
17954;DHT22;9102;53.548;9.926;2022-09-09T04:36:34;13.80;99.90
17954;DHT22;9102;53.548;9.926;2022-09-09T04:39:02;13.80;99.90
17954;DHT22;9102;53.548;9.926;2022-09-09T04:41:29;13.80;99.90
17954;DHT22;9102;53.548;9.926;2022-09-09T04:43:58;13.90;99.90
17954;DHT22;9102;53.548;9.926;2022-09-09T04:46:26;13.90;99.90
17954;DHT22;9102;53.548;9.926;2022-09-09T04:48:53;14.00;99.90
17954;DHT22;9102;53.548;9.926;2022-09-09T04:51:20;14.00;99.90
17954;DHT22;9102;53.548;9.926;2022-09-09T04:53:47;14.10;99.90
17954;DHT22;9102;53.548;9.926;2022-09-09T04:56:16;14.10;99.90
17954;DHT22;9102;53.548;9.926;2022-09-09T04:58:43;14.20;99.90
17954;DHT22;9102;53.548;9.926;2022-09-09T05:01:14;14.10;99.90
17954;DHT22;9102;53.548;9.926;2022-09-09T05:03:42;14.20;99.90
17954;DHT22;9102;53.548;9.926;2022-09-09T05:06:11;14.20;99.90
17954;DHT22;9102;53.548;9.926;2022-09-09T05:08:39;14.10;99.90
17954;DHT22;9102;53.548;9.926;2022-09-09T05:11:14;14.10;99.90
17954;DHT22;9102;53.548;9.926;2022-09-09T05:13:41;14.10;99.90
17954;DHT22;9102;53.548;9.926;2022-09-09T05:16:08;14.10;99.90
17954;DHT22;9102;53.548;9.926;2022-09-09T05:18:38;14.10;99.90
17954;DHT22;9102;53.548;9.926;2022-09-09T05:21:04;14.10;99.90
17954;DHT22;9102;53.548;9.926;2022-09-09T05:23:32;14.10;99.90
17954;DHT22;9102;53.548;9.926;2022-09-09T05:25:59;14.00;99.90
17954;DHT22;9102;53.548;9.926;2022-09-09T05:28:27;14.10;99.90
17954;DHT22;9102;53.548;9.926;2022-09-09T05:30:58;14.10;99.90
17954;DHT22;9102;53.548;9.926;2022-09-09T05:33:26;14.20;99.90
17954;DHT22;9102;53.548;9.926;2022-09-09T05:35:59;14.30;99.90
17954;DHT22;9102;53.548;9.926;2022-09-09T05:38:27;14.30;99.90
17954;DHT22;9102;53.548;9.926;2022-09-09T05:40:55;14.30;99.90
17954;DHT22;9102;53.548;9.926;2022-09-09T05:43:22;14.30;99.90
17954;DHT22;9102;53.548;9.926;2022-09-09T05:45:59;14.40;99.90
17954;DHT22;9102;53.548;9.926;2022-09-09T05:48:28;14.30;99.90
17954;DHT22;9102;53.548;9.926;2022-09-09T05:50:56;14.40;99.90
17954;DHT22;9102;53.548;9.926;2022-09-09T05:53:24;14.50;99.90
17954;DHT22;9102;53.548;9.926;2022-09-09T05:55:57;14.70;99.90
17954;DHT22;9102;53.548;9.926;2022-09-09T05:58:24;14.80;99.90
17954;DHT22;9102;53.548;9.926;2022-09-09T06:00:51;14.90;99.90
17954;DHT22;9102;53.548;9.926;2022-09-09T06:03:18;15.00;99.90
17954;DHT22;9102;53.548;9.926;2022-09-09T06:05:57;15.00;99.90
17954;DHT22;9102;53.548;9.926;2022-09-09T06:08:25;15.10;99.90
17954;DHT22;9102;53.548;9.926;2022-09-09T06:10:52;15.20;99.90
17954;DHT22;9102;53.548;9.926;2022-09-09T06:13:19;15.20;99.90
17954;DHT22;9102;53.548;9.926;2022-09-09T06:15:49;15.20;99.90
17954;DHT22;9102;53.548;9.926;2022-09-09T06:18:16;15.20;99.90
17954;DHT22;9102;53.548;9.926;2022-09-09T06:20:52;15.30;99.90
17954;DHT22;9102;53.548;9.926;2022-09-09T06:23:19;15.20;99.90
17954;DHT22;9102;53.548;9.926;2022-09-09T06:25:47;15.10;99.90
17954;DHT22;9102;53.548;9.926;2022-09-09T06:28:14;15.20;99.90
17954;DHT22;9102;53.548;9.926;2022-09-09T06:30:41;15.10;99.90
17954;DHT22;9102;53.548;9.926;2022-09-09T06:33:08;15.20;99.90
17954;DHT22;9102;53.548;9.926;2022-09-09T06:35:35;15.20;99.90
17954;DHT22;9102;53.548;9.926;2022-09-09T06:38:02;15.20;99.90
17954;DHT22;9102;53.548;9.926;2022-09-09T06:40:29;15.30;99.90
17954;DHT22;9102;53.548;9.926;2022-09-09T06:43:00;15.40;99.90
17954;DHT22;9102;53.548;9.926;2022-09-09T06:45:27;15.50;99.90
17954;DHT22;9102;53.548;9.926;2022-09-09T06:47:55;15.50;99.90
17954;DHT22;9102;53.548;9.926;2022-09-09T06:50:22;15.50;99.90
17954;DHT22;9102;53.548;9.926;2022-09-09T06:52:49;15.50;99.90
17954;DHT22;9102;53.548;9.926;2022-09-09T06:55:15;15.50;99.90
17954;DHT22;9102;53.548;9.926;2022-09-09T06:57:43;15.60;99.90
17954;DHT22;9102;53.548;9.926;2022-09-09T07:00:13;15.70;99.90
17954;DHT22;9102;53.548;9.926;2022-09-09T07:02:40;15.80;99.90
17954;DHT22;9102;53.548;9.926;2022-09-09T07:05:07;15.90;99.90
17954;DHT22;9102;53.548;9.926;2022-09-09T07:07:34;16.10;99.90
17954;DHT22;9102;53.548;9.926;2022-09-09T07:10:02;16.20;99.90
17954;DHT22;9102;53.548;9.926;2022-09-09T07:12:29;16.30;99.90
17954;DHT22;9102;53.548;9.926;2022-09-09T07:14:56;16.40;99.90
17954;DHT22;9102;53.548;9.926;2022-09-09T07:17:24;16.50;99.90
17954;DHT22;9102;53.548;9.926;2022-09-09T07:19:51;16.50;99.90
17954;DHT22;9102;53.548;9.926;2022-09-09T07:22:18;16.50;99.90
17954;DHT22;9102;53.548;9.926;2022-09-09T07:24:45;16.60;99.90
17954;DHT22;9102;53.548;9.926;2022-09-09T07:27:12;16.60;99.90
17954;DHT22;9102;53.548;9.926;2022-09-09T07:29:39;16.70;99.90
17954;DHT22;9102;53.548;9.926;2022-09-09T07:32:05;16.60;99.90
17954;DHT22;9102;53.548;9.926;2022-09-09T07:34:34;16.70;99.90
17954;DHT22;9102;53.548;9.926;2022-09-09T07:37:00;16.90;99.90
17954;DHT22;9102;53.548;9.926;2022-09-09T07:39:27;17.00;99.90
17954;DHT22;9102;53.548;9.926;2022-09-09T07:41:54;17.00;99.90
17954;DHT22;9102;53.548;9.926;2022-09-09T07:44:22;16.90;99.90
17954;DHT22;9102;53.548;9.926;2022-09-09T07:46:50;16.90;99.90
17954;DHT22;9102;53.548;9.926;2022-09-09T07:49:17;16.90;99.90
17954;DHT22;9102;53.548;9.926;2022-09-09T07:51:46;17.00;99.90
17954;DHT22;9102;53.548;9.926;2022-09-09T07:54:16;17.00;99.90
17954;DHT22;9102;53.548;9.926;2022-09-09T07:56:45;17.10;99.90
17954;DHT22;9102;53.548;9.926;2022-09-09T07:59:13;17.00;99.90
17954;DHT22;9102;53.548;9.926;2022-09-09T08:01:42;17.20;99.90
17954;DHT22;9102;53.548;9.926;2022-09-09T08:04:10;17.10;99.90
17954;DHT22;9102;53.548;9.926;2022-09-09T08:06:43;17.20;99.90
17954;DHT22;9102;53.548;9.926;2022-09-09T08:09:11;17.20;99.90
17954;DHT22;9102;53.548;9.926;2022-09-09T08:11:39;17.40;99.90
17954;DHT22;9102;53.548;9.926;2022-09-09T08:14:07;17.40;99.90
17954;DHT22;9102;53.548;9.926;2022-09-09T08:16:36;17.40;99.90
17954;DHT22;9102;53.548;9.926;2022-09-09T08:19:04;17.60;99.90
17954;DHT22;9102;53.548;9.926;2022-09-09T08:21:33;17.70;99.90
17954;DHT22;9102;53.548;9.926;2022-09-09T08:24:03;17.70;99.90
17954;DHT22;9102;53.548;9.926;2022-09-09T08:26:33;17.70;99.90
17954;DHT22;9102;53.548;9.926;2022-09-09T08:29:01;17.80;99.90
17954;DHT22;9102;53.548;9.926;2022-09-09T08:31:30;17.90;99.90
17954;DHT22;9102;53.548;9.926;2022-09-09T08:33:57;17.90;99.90
17954;DHT22;9102;53.548;9.926;2022-09-09T08:36:28;17.90;99.90
17954;DHT22;9102;53.548;9.926;2022-09-09T08:38:56;18.00;99.90
17954;DHT22;9102;53.548;9.926;2022-09-09T08:44:30;18.00;99.90
17954;DHT22;9102;53.548;9.926;2022-09-09T08:47:06;18.00;99.90
17954;DHT22;9102;53.548;9.926;2022-09-09T08:50:05;17.90;99.90
17954;DHT22;9102;53.548;9.926;2022-09-09T08:52:39;18.00;99.90
17954;DHT22;9102;53.548;9.926;2022-09-09T08:55:19;18.00;99.90
17954;DHT22;9102;53.548;9.926;2022-09-09T08:57:49;18.30;99.90
17954;DHT22;9102;53.548;9.926;2022-09-09T09:00:18;18.40;99.90
17954;DHT22;9102;53.548;9.926;2022-09-09T09:02:50;18.40;99.90
17954;DHT22;9102;53.548;9.926;2022-09-09T09:05:25;18.30;99.90
17954;DHT22;9102;53.548;9.926;2022-09-09T09:08:06;18.40;99.90
17954;DHT22;9102;53.548;9.926;2022-09-09T09:10:44;18.50;99.90
17954;DHT22;9102;53.548;9.926;2022-09-09T09:13:15;18.70;99.90
17954;DHT22;9102;53.548;9.926;2022-09-09T09:15:48;18.80;99.90
17954;DHT22;9102;53.548;9.926;2022-09-09T09:18:17;19.00;99.90
17954;DHT22;9102;53.548;9.926;2022-09-09T09:20:54;19.30;99.90
17954;DHT22;9102;53.548;9.926;2022-09-09T09:23:26;19.30;99.90
17954;DHT22;9102;53.548;9.926;2022-09-09T09:25:59;19.20;99.90
17954;DHT22;9102;53.548;9.926;2022-09-09T09:28:29;19.20;99.90
17954;DHT22;9102;53.548;9.926;2022-09-09T09:31:01;19.30;99.90
17954;DHT22;9102;53.548;9.926;2022-09-09T09:33:34;19.40;99.90
17954;DHT22;9102;53.548;9.926;2022-09-09T09:36:02;19.50;99.90
17954;DHT22;9102;53.548;9.926;2022-09-09T09:38:33;19.50;99.90
17954;DHT22;9102;53.548;9.926;2022-09-09T09:41:00;19.50;99.90
17954;DHT22;9102;53.548;9.926;2022-09-09T09:43:29;19.60;99.90
17954;DHT22;9102;53.548;9.926;2022-09-09T09:45:58;19.60;99.90
17954;DHT22;9102;53.548;9.926;2022-09-09T09:48:27;19.40;99.90
17954;DHT22;9102;53.548;9.926;2022-09-09T09:50:55;19.40;99.90
17954;DHT22;9102;53.548;9.926;2022-09-09T09:53:25;19.60;99.90
17954;DHT22;9102;53.548;9.926;2022-09-09T09:55:58;19.60;99.90
17954;DHT22;9102;53.548;9.926;2022-09-09T09:58:26;19.70;99.90
17954;DHT22;9102;53.548;9.926;2022-09-09T10:00:55;19.70;99.90
17954;DHT22;9102;53.548;9.926;2022-09-09T10:03:26;19.80;99.90
17954;DHT22;9102;53.548;9.926;2022-09-09T10:05:53;19.60;99.90
17954;DHT22;9102;53.548;9.926;2022-09-09T10:08:22;19.60;99.90
17954;DHT22;9102;53.548;9.926;2022-09-09T10:11:23;19.60;99.90
17954;DHT22;9102;53.548;9.926;2022-09-09T10:13:57;19.60;99.90
17954;DHT22;9102;53.548;9.926;2022-09-09T10:16:38;19.60;99.90
17954;DHT22;9102;53.548;9.926;2022-09-09T10:19:13;19.70;99.90
17954;DHT22;9102;53.548;9.926;2022-09-09T10:21:55;19.80;99.90
17954;DHT22;9102;53.548;9.926;2022-09-09T10:24:44;19.80;99.90
17954;DHT22;9102;53.548;9.926;2022-09-09T10:27:20;19.80;99.90
17954;DHT22;9102;53.548;9.926;2022-09-09T10:30:03;19.70;99.90
17954;DHT22;9102;53.548;9.926;2022-09-09T10:32:38;19.60;99.90
17954;DHT22;9102;53.548;9.926;2022-09-09T10:35:14;19.70;99.90
17954;DHT22;9102;53.548;9.926;2022-09-09T10:38:15;19.90;99.90
17954;DHT22;9102;53.548;9.926;2022-09-09T10:40:47;20.00;99.90
17954;DHT22;9102;53.548;9.926;2022-09-09T10:43:31;19.90;99.90
17954;DHT22;9102;53.548;9.926;2022-09-09T10:46:05;20.00;99.90
17954;DHT22;9102;53.548;9.926;2022-09-09T10:48:53;19.90;99.90
17954;DHT22;9102;53.548;9.926;2022-09-09T10:51:33;19.90;99.90
17954;DHT22;9102;53.548;9.926;2022-09-09T10:54:23;19.90;99.90
17954;DHT22;9102;53.548;9.926;2022-09-09T10:56:54;20.00;99.90
17954;DHT22;9102;53.548;9.926;2022-09-09T10:59:25;20.20;99.90
17954;DHT22;9102;53.548;9.926;2022-09-09T11:01:57;20.20;99.90
17954;DHT22;9102;53.548;9.926;2022-09-09T11:04:28;20.10;99.90
17954;DHT22;9102;53.548;9.926;2022-09-09T11:07:07;20.20;99.90
17954;DHT22;9102;53.548;9.926;2022-09-09T11:09:39;20.30;99.90
17954;DHT22;9102;53.548;9.926;2022-09-09T11:12:14;20.30;99.90
17954;DHT22;9102;53.548;9.926;2022-09-09T11:14:47;20.40;99.90
17954;DHT22;9102;53.548;9.926;2022-09-09T11:17:19;20.30;99.90
17954;DHT22;9102;53.548;9.926;2022-09-09T11:19:47;20.40;99.90
17954;DHT22;9102;53.548;9.926;2022-09-09T11:22:24;20.40;99.90
17954;DHT22;9102;53.548;9.926;2022-09-09T11:24:59;20.50;99.90
17954;DHT22;9102;53.548;9.926;2022-09-09T11:27:30;20.80;99.90
17954;DHT22;9102;53.548;9.926;2022-09-09T11:30:15;21.00;99.90
17954;DHT22;9102;53.548;9.926;2022-09-09T11:35:53;21.30;99.90
17954;DHT22;9102;53.548;9.926;2022-09-09T11:38:27;21.40;99.90
17954;DHT22;9102;53.548;9.926;2022-09-09T11:40:58;21.40;99.90
17954;DHT22;9102;53.548;9.926;2022-09-09T11:43:29;21.40;99.90
17954;DHT22;9102;53.548;9.926;2022-09-09T11:46:00;21.50;99.90
17954;DHT22;9102;53.548;9.926;2022-09-09T11:48:35;21.50;99.90
17954;DHT22;9102;53.548;9.926;2022-09-09T11:51:06;21.30;99.90
17954;DHT22;9102;53.548;9.926;2022-09-09T11:53:35;21.20;99.90
17954;DHT22;9102;53.548;9.926;2022-09-09T11:56:08;21.10;99.90
17954;DHT22;9102;53.548;9.926;2022-09-09T11:58:40;21.00;99.90
17954;DHT22;9102;53.548;9.926;2022-09-09T12:01:36;20.90;99.90
17954;DHT22;9102;53.548;9.926;2022-09-09T12:04:13;20.70;99.90
17954;DHT22;9102;53.548;9.926;2022-09-09T12:06:43;20.60;99.90
17954;DHT22;9102;53.548;9.926;2022-09-09T12:09:28;20.50;99.90
17954;DHT22;9102;53.548;9.926;2022-09-09T12:12:07;20.50;99.90
17954;DHT22;9102;53.548;9.926;2022-09-09T12:14:37;20.50;99.90
17954;DHT22;9102;53.548;9.926;2022-09-09T12:17:19;20.50;99.90
17954;DHT22;9102;53.548;9.926;2022-09-09T12:19:46;20.40;99.90
17954;DHT22;9102;53.548;9.926;2022-09-09T12:22:20;20.10;99.90
17954;DHT22;9102;53.548;9.926;2022-09-09T12:24:56;20.30;99.90
17954;DHT22;9102;53.548;9.926;2022-09-09T12:27:30;20.60;99.90
17954;DHT22;9102;53.548;9.926;2022-09-09T12:30:03;20.80;99.90
17954;DHT22;9102;53.548;9.926;2022-09-09T12:32:30;20.90;99.90
17954;DHT22;9102;53.548;9.926;2022-09-09T12:34:59;20.90;99.90
17954;DHT22;9102;53.548;9.926;2022-09-09T12:37:32;20.90;99.90
17954;DHT22;9102;53.548;9.926;2022-09-09T12:40:05;20.70;99.90
17954;DHT22;9102;53.548;9.926;2022-09-09T12:42:32;20.80;99.90
17954;DHT22;9102;53.548;9.926;2022-09-09T12:45:01;20.90;99.90
17954;DHT22;9102;53.548;9.926;2022-09-09T12:47:37;20.90;99.90
17954;DHT22;9102;53.548;9.926;2022-09-09T12:50:15;20.90;99.90
17954;DHT22;9102;53.548;9.926;2022-09-09T12:52:43;20.70;99.90
17954;DHT22;9102;53.548;9.926;2022-09-09T12:55:18;20.70;99.90
17954;DHT22;9102;53.548;9.926;2022-09-09T12:57:45;20.50;99.90
17954;DHT22;9102;53.548;9.926;2022-09-09T13:00:15;20.30;99.90
17954;DHT22;9102;53.548;9.926;2022-09-09T13:02:48;20.10;99.90
17954;DHT22;9102;53.548;9.926;2022-09-09T13:05:18;19.90;99.90
17954;DHT22;9102;53.548;9.926;2022-09-09T13:07:45;19.70;99.90
17954;DHT22;9102;53.548;9.926;2022-09-09T13:10:19;19.70;99.90
17954;DHT22;9102;53.548;9.926;2022-09-09T13:12:47;19.60;99.90
17954;DHT22;9102;53.548;9.926;2022-09-09T13:15:20;19.40;99.90
17954;DHT22;9102;53.548;9.926;2022-09-09T13:17:53;19.50;99.90
17954;DHT22;9102;53.548;9.926;2022-09-09T13:20:21;19.40;99.90
17954;DHT22;9102;53.548;9.926;2022-09-09T13:22:49;19.40;99.90
17954;DHT22;9102;53.548;9.926;2022-09-09T13:25:21;18.90;99.90
17954;DHT22;9102;53.548;9.926;2022-09-09T13:27:57;18.30;99.90
17954;DHT22;9102;53.548;9.926;2022-09-09T13:30:27;17.90;99.90
17954;DHT22;9102;53.548;9.926;2022-09-09T13:33:17;17.50;99.90
17954;DHT22;9102;53.548;9.926;2022-09-09T13:35:47;17.20;99.90
17954;DHT22;9102;53.548;9.926;2022-09-09T13:38:15;16.90;99.90
17954;DHT22;9102;53.548;9.926;2022-09-09T13:40:54;16.70;99.90
17954;DHT22;9102;53.548;9.926;2022-09-09T13:46:44;16.60;99.90
17954;DHT22;9102;53.548;9.926;2022-09-09T13:49:20;16.60;99.90
17954;DHT22;9102;53.548;9.926;2022-09-09T13:51:49;16.50;99.90
17954;DHT22;9102;53.548;9.926;2022-09-09T13:54:18;16.60;99.90
17954;DHT22;9102;53.548;9.926;2022-09-09T13:56:47;16.50;99.90
17954;DHT22;9102;53.548;9.926;2022-09-09T13:59:17;16.50;99.90
17954;DHT22;9102;53.548;9.926;2022-09-09T14:01:45;16.50;99.90
17954;DHT22;9102;53.548;9.926;2022-09-09T14:04:12;16.60;99.90
17954;DHT22;9102;53.548;9.926;2022-09-09T14:06:39;16.60;99.90
17954;DHT22;9102;53.548;9.926;2022-09-09T14:09:07;16.70;99.90
17954;DHT22;9102;53.548;9.926;2022-09-09T14:11:36;16.60;99.90
17954;DHT22;9102;53.548;9.926;2022-09-09T14:14:04;16.60;99.90
17954;DHT22;9102;53.548;9.926;2022-09-09T14:16:31;16.60;99.90
17954;DHT22;9102;53.548;9.926;2022-09-09T14:18:58;16.60;99.90
17954;DHT22;9102;53.548;9.926;2022-09-09T14:21:25;16.70;99.90
17954;DHT22;9102;53.548;9.926;2022-09-09T14:23:52;16.70;99.90
17954;DHT22;9102;53.548;9.926;2022-09-09T14:26:20;16.80;99.90
17954;DHT22;9102;53.548;9.926;2022-09-09T14:28:47;16.70;99.90
17954;DHT22;9102;53.548;9.926;2022-09-09T14:31:15;16.70;99.90
17954;DHT22;9102;53.548;9.926;2022-09-09T14:33:43;16.70;99.90
17954;DHT22;9102;53.548;9.926;2022-09-09T14:36:10;16.60;99.90
17954;DHT22;9102;53.548;9.926;2022-09-09T14:38:38;16.60;99.90
17954;DHT22;9102;53.548;9.926;2022-09-09T14:41:05;16.60;99.90
17954;DHT22;9102;53.548;9.926;2022-09-09T14:43:32;16.60;99.90
17954;DHT22;9102;53.548;9.926;2022-09-09T14:46:04;16.50;99.90
17954;DHT22;9102;53.548;9.926;2022-09-09T14:48:33;16.50;99.90
17954;DHT22;9102;53.548;9.926;2022-09-09T14:51:05;16.50;99.90
17954;DHT22;9102;53.548;9.926;2022-09-09T14:53:35;16.50;99.90
17954;DHT22;9102;53.548;9.926;2022-09-09T14:56:04;16.50;99.90
17954;DHT22;9102;53.548;9.926;2022-09-09T14:58:31;16.50;99.90
17954;DHT22;9102;53.548;9.926;2022-09-09T15:01:03;16.40;99.90
17954;DHT22;9102;53.548;9.926;2022-09-09T15:03:30;16.40;99.90
17954;DHT22;9102;53.548;9.926;2022-09-09T15:06:04;16.40;99.90
17954;DHT22;9102;53.548;9.926;2022-09-09T15:08:30;16.40;99.90
17954;DHT22;9102;53.548;9.926;2022-09-09T15:10:59;16.30;99.90
17954;DHT22;9102;53.548;9.926;2022-09-09T15:13:26;16.30;99.90
17954;DHT22;9102;53.548;9.926;2022-09-09T15:15:53;16.30;99.90
17954;DHT22;9102;53.548;9.926;2022-09-09T15:18:20;16.50;99.90
17954;DHT22;9102;53.548;9.926;2022-09-09T15:20:47;16.40;99.90
17954;DHT22;9102;53.548;9.926;2022-09-09T15:23:15;16.40;99.90
17954;DHT22;9102;53.548;9.926;2022-09-09T15:25:50;16.30;99.90
17954;DHT22;9102;53.548;9.926;2022-09-09T15:28:18;16.40;99.90
17954;DHT22;9102;53.548;9.926;2022-09-09T15:30:47;16.40;99.90
17954;DHT22;9102;53.548;9.926;2022-09-09T15:33:14;16.60;99.90
17954;DHT22;9102;53.548;9.926;2022-09-09T15:35:44;16.50;99.90
17954;DHT22;9102;53.548;9.926;2022-09-09T15:38:11;16.60;99.90
17954;DHT22;9102;53.548;9.926;2022-09-09T15:40:40;16.60;99.90
17954;DHT22;9102;53.548;9.926;2022-09-09T15:43:08;16.70;99.90
17954;DHT22;9102;53.548;9.926;2022-09-09T15:45:36;16.60;99.90
17954;DHT22;9102;53.548;9.926;2022-09-09T15:48:04;16.60;99.90
17954;DHT22;9102;53.548;9.926;2022-09-09T15:50:30;16.70;99.90
17954;DHT22;9102;53.548;9.926;2022-09-09T15:52:58;16.60;99.90
17954;DHT22;9102;53.548;9.926;2022-09-09T15:55:24;16.70;99.90
17954;DHT22;9102;53.548;9.926;2022-09-09T15:57:53;16.90;99.90
17954;DHT22;9102;53.548;9.926;2022-09-09T16:00:21;17.00;99.90
17954;DHT22;9102;53.548;9.926;2022-09-09T16:02:49;17.20;99.90
17954;DHT22;9102;53.548;9.926;2022-09-09T16:05:16;17.20;99.90
17954;DHT22;9102;53.548;9.926;2022-09-09T16:07:43;17.30;99.90
17954;DHT22;9102;53.548;9.926;2022-09-09T16:10:10;17.30;99.90
17954;DHT22;9102;53.548;9.926;2022-09-09T16:12:39;17.30;99.90
17954;DHT22;9102;53.548;9.926;2022-09-09T16:15:07;17.30;99.90
17954;DHT22;9102;53.548;9.926;2022-09-09T16:17:34;17.30;99.90
17954;DHT22;9102;53.548;9.926;2022-09-09T16:20:04;17.30;99.90
17954;DHT22;9102;53.548;9.926;2022-09-09T16:22:34;17.20;99.90
17954;DHT22;9102;53.548;9.926;2022-09-09T16:25:02;17.20;99.90